createdAt,value
2022-11-04T00:04:18.498Z,0.00
2022-11-04T00:09:24.867Z,0.01
2022-11-04T00:14:31.652Z,0.01
2022-11-04T00:19:38.026Z,0.00
2022-11-04T00:24:44.734Z,0.00
2022-11-04T00:29:51.089Z,0.00
2022-11-04T00:34:57.713Z,0.00
2022-11-04T00:40:04.073Z,0.02
2022-11-04T00:45:10.961Z,0.01
2022-11-04T00:50:17.296Z,0.00
2022-11-04T00:55:24.003Z,0.00
2022-11-04T01:00:30.404Z,0.02
2022-11-04T01:05:37.775Z,0.00
2022-11-04T01:10:44.065Z,0.00
2022-11-04T01:15:50.741Z,0.00
2022-11-04T01:20:57.091Z,0.00
2022-11-04T01:26:03.892Z,0.00
2022-11-04T01:31:10.275Z,0.05
2022-11-04T01:36:16.951Z,0.00
2022-11-04T01:41:23.270Z,0.00
2022-11-04T01:46:29.928Z,0.04
2022-11-04T01:51:36.214Z,0.00
2022-11-04T01:56:42.840Z,0.01
2022-11-04T02:01:49.335Z,0.03
2022-11-04T02:06:55.976Z,0.01
2022-11-04T02:12:02.306Z,0.00
2022-11-04T02:17:09.026Z,0.00
2022-11-04T02:22:15.385Z,0.05
2022-11-04T02:27:21.967Z,0.01
2022-11-04T02:32:28.263Z,0.00
2022-11-04T02:37:34.864Z,0.01
2022-11-04T02:42:41.230Z,0.01
2022-11-04T02:47:47.822Z,0.00
2022-11-04T02:52:54.126Z,0.01
2022-11-04T02:58:00.772Z,0.00
2022-11-04T03:03:07.304Z,0.02
2022-11-04T03:08:14.516Z,0.01
2022-11-04T03:13:20.812Z,0.02
2022-11-04T03:18:30.352Z,0.04
2022-11-04T03:23:36.664Z,0.00
2022-11-04T03:28:43.559Z,0.00
2022-11-04T03:33:49.889Z,0.01
2022-11-04T03:38:56.691Z,0.00
2022-11-04T03:44:03.011Z,0.00
2022-11-04T03:49:09.662Z,0.01
2022-11-04T03:54:15.951Z,0.00
2022-11-04T03:59:22.681Z,0.00
2022-11-04T04:04:30.693Z,0.00
2022-11-04T04:09:38.675Z,0.00
2022-11-04T04:14:45.000Z,0.00
2022-11-04T04:19:53.399Z,0.00
2022-11-04T04:24:59.713Z,0.00
2022-11-04T04:30:06.280Z,0.00
2022-11-04T04:35:12.629Z,0.00
2022-11-04T04:40:22.235Z,0.01
2022-11-04T04:45:25.116Z,0.00
2022-11-04T04:50:32.482Z,0.01
2022-11-04T04:55:40.807Z,0.01
2022-11-04T05:00:45.761Z,0.00
2022-11-04T05:05:54.890Z,0.03
2022-11-04T05:10:59.790Z,0.05
2022-11-04T05:16:06.166Z,0.00
2022-11-04T05:21:13.501Z,0.01
2022-11-04T05:26:19.763Z,0.01
2022-11-04T05:31:27.016Z,0.00
2022-11-04T05:36:33.450Z,0.00
2022-11-04T05:41:40.757Z,0.00
2022-11-04T05:46:47.212Z,0.00
2022-11-04T05:51:53.738Z,0.00
2022-11-04T05:57:00.091Z,0.00
2022-11-04T06:02:06.927Z,0.00
2022-11-04T06:07:13.236Z,0.01
2022-11-04T06:12:19.989Z,0.05
2022-11-04T06:17:26.313Z,0.07
2022-11-04T06:22:32.943Z,0.10
2022-11-04T06:27:39.281Z,0.08
2022-11-04T06:32:45.919Z,0.09
2022-11-04T06:37:55.578Z,0.08
2022-11-04T06:43:01.974Z,0.09
2022-11-04T06:48:08.681Z,0.09
2022-11-04T06:53:19.856Z,0.10
2022-11-04T06:58:17.336Z,0.09
2022-11-04T07:03:24.378Z,0.10
2022-11-04T07:08:31.114Z,0.10
2022-11-04T07:13:38.750Z,0.00
2022-11-04T07:18:46.242Z,0.04
2022-11-04T07:23:52.791Z,0.10
2022-11-04T07:29:27.244Z,0.10
2022-11-04T07:34:24.767Z,0.11
2022-11-04T07:39:31.131Z,0.10
2022-11-04T07:44:39.686Z,0.10
2022-11-04T07:49:46.144Z,0.10
2022-11-04T07:54:54.096Z,0.03
2022-11-04T08:00:00.476Z,0.10
2022-11-04T08:05:09.740Z,0.09
2022-11-04T08:10:16.118Z,0.10
2022-11-04T08:15:24.205Z,0.10
2022-11-04T08:20:31.253Z,0.10
2022-11-04T08:25:38.116Z,0.10
2022-11-04T08:30:45.192Z,0.10
2022-11-04T08:35:51.965Z,0.10
2022-11-04T08:41:00.005Z,0.07
2022-11-04T08:46:04.552Z,0.09
2022-11-04T08:51:11.483Z,0.10
2022-11-04T08:56:18.200Z,0.08
2022-11-04T09:01:24.715Z,0.05
2022-11-04T09:06:32.075Z,0.08
2022-11-04T09:11:39.024Z,0.06
2022-11-04T09:16:47.893Z,0.10
2022-11-04T09:21:54.264Z,0.10
2022-11-04T09:27:03.835Z,0.10
2022-11-04T09:32:10.211Z,0.09
2022-11-04T09:37:17.127Z,0.09
2022-11-04T09:42:23.529Z,0.13
2022-11-04T09:47:30.200Z,0.13
2022-11-04T09:52:36.568Z,0.10
2022-11-04T09:57:43.255Z,0.10
2022-11-04T10:02:49.628Z,0.10
2022-11-04T10:07:56.393Z,0.10
2022-11-04T10:13:02.788Z,0.10
2022-11-04T10:18:09.684Z,0.07
2022-11-04T10:23:16.042Z,0.07
2022-11-04T10:28:22.847Z,0.10
2022-11-04T10:33:29.320Z,0.10
2022-11-04T10:38:36.104Z,0.10
2022-11-04T10:43:42.567Z,0.10
2022-11-04T10:48:49.223Z,0.10
2022-11-04T10:53:55.548Z,0.09
2022-11-04T10:59:03.129Z,0.10
2022-11-04T11:04:09.463Z,0.10
2022-11-04T11:09:16.378Z,0.10
2022-11-04T11:14:22.730Z,0.11
2022-11-04T11:19:30.275Z,0.10
2022-11-04T11:24:36.684Z,0.09
2022-11-04T11:29:43.390Z,0.10
2022-11-04T11:34:49.738Z,0.10
2022-11-04T11:39:57.092Z,0.10
2022-11-04T11:45:03.427Z,0.10
2022-11-04T11:50:11.470Z,0.10
2022-11-04T11:55:17.849Z,0.10
2022-11-04T12:00:39.474Z,0.10
2022-11-04T12:10:50.378Z,0.20
2022-11-04T12:15:43.305Z,0.10
2022-11-04T12:20:54.475Z,0.10
2022-11-04T12:25:52.971Z,0.10
2022-11-04T12:30:59.586Z,0.10
2022-11-04T12:36:05.947Z,0.10
2022-11-04T12:41:46.742Z,0.10
2022-11-04T12:46:19.152Z,0.10
2022-11-04T12:51:25.750Z,0.05
2022-11-04T12:56:32.079Z,0.12
2022-11-04T13:01:38.913Z,0.10
2022-11-04T13:06:45.104Z,0.10
2022-11-04T13:11:55.186Z,0.07
2022-11-04T13:16:51.656Z,0.09
2022-11-04T13:21:58.289Z,0.10
2022-11-04T13:27:04.725Z,0.10
2022-11-04T13:32:11.565Z,0.10
2022-11-04T13:37:17.940Z,0.05
2022-11-04T13:42:24.812Z,0.08
2022-11-04T13:47:31.157Z,0.05
2022-11-04T13:52:37.912Z,0.10
2022-11-04T13:57:44.269Z,0.10
2022-11-04T14:02:51.675Z,0.10
2022-11-04T14:07:57.983Z,0.10
2022-11-04T14:13:05.330Z,0.10
2022-11-04T14:18:13.104Z,0.09
2022-11-04T14:23:18.626Z,0.08
2022-11-04T14:28:25.797Z,0.10
2022-11-04T14:33:32.445Z,0.11
2022-11-04T14:38:38.795Z,0.09
2022-11-04T14:43:45.439Z,0.10
2022-11-04T14:48:51.807Z,0.09
2022-11-04T14:53:58.533Z,0.09
2022-11-04T14:59:04.962Z,0.10
2022-11-04T15:04:13.744Z,0.10
2022-11-04T15:09:18.301Z,0.10
2022-11-04T15:14:25.746Z,0.10
2022-11-04T15:19:32.119Z,0.10
2022-11-04T15:24:38.869Z,0.10
2022-11-04T15:29:45.435Z,0.10
2022-11-04T15:34:52.153Z,0.10
2022-11-04T15:39:58.528Z,0.10
2022-11-04T15:45:05.178Z,0.10
2022-11-04T15:50:11.793Z,0.10
2022-11-04T15:55:18.400Z,0.10
2022-11-04T16:00:25.753Z,0.10
2022-11-04T16:05:33.181Z,0.10
2022-11-04T16:10:39.576Z,0.10
2022-11-04T16:15:47.349Z,0.10
2022-11-04T16:20:54.150Z,0.06
2022-11-04T16:26:02.445Z,0.07
2022-11-04T16:31:08.932Z,0.08
2022-11-04T16:36:16.301Z,0.09
2022-11-04T16:41:22.635Z,0.10
2022-11-04T16:46:29.482Z,0.09
2022-11-04T16:51:35.826Z,0.10
2022-11-04T16:56:42.624Z,0.10
2022-11-04T17:01:49.139Z,0.10
2022-11-04T17:06:55.686Z,0.10
2022-11-04T17:12:03.409Z,0.10
2022-11-04T17:17:10.147Z,0.10
2022-11-04T17:22:16.627Z,0.10
2022-11-04T17:27:23.370Z,0.10
2022-11-04T17:32:31.046Z,0.10
2022-11-04T17:37:37.809Z,0.10
2022-11-04T17:42:44.156Z,0.11
2022-11-04T17:47:51.586Z,0.09
2022-11-04T17:52:57.942Z,0.10
2022-11-04T17:58:05.294Z,0.10
2022-11-04T18:03:12.128Z,0.10
2022-11-04T18:08:18.340Z,0.11
2022-11-04T18:13:24.674Z,0.10
2022-11-04T18:18:32.419Z,0.10
2022-11-04T18:23:38.725Z,0.00
2022-11-04T18:28:45.421Z,0.10
2022-11-04T18:33:52.363Z,0.10
2022-11-04T18:38:59.304Z,0.10
2022-11-04T18:44:05.641Z,0.10
2022-11-04T18:49:12.362Z,0.11
2022-11-04T18:54:18.690Z,0.10
2022-11-04T18:59:25.384Z,0.10
2022-11-04T19:04:31.712Z,0.10
2022-11-04T19:09:46.726Z,0.10
2022-11-04T19:14:44.237Z,0.10
2022-11-04T19:19:51.001Z,0.10
2022-11-04T19:24:57.353Z,0.10
2022-11-04T19:30:06.177Z,0.10
2022-11-04T19:35:14.983Z,0.10
2022-11-04T19:40:22.672Z,0.05
2022-11-04T19:45:29.008Z,0.10
2022-11-04T19:50:35.713Z,0.09
2022-11-04T19:55:42.089Z,0.10
2022-11-04T20:00:48.798Z,0.10
2022-11-04T20:05:57.467Z,0.09
2022-11-04T20:11:04.094Z,0.10
2022-11-04T20:16:10.468Z,0.10
2022-11-04T20:21:17.241Z,0.09
2022-11-04T20:26:23.604Z,0.10
2022-11-04T20:31:30.393Z,0.10
2022-11-04T20:36:37.219Z,0.10
2022-11-04T20:42:00.968Z,0.10
2022-11-04T20:46:47.286Z,0.10
2022-11-04T20:51:55.586Z,0.10
2022-11-04T20:56:59.561Z,0.10
2022-11-04T21:02:06.357Z,0.10
2022-11-04T21:07:12.600Z,0.06
2022-11-04T21:12:19.244Z,0.10
2022-11-04T21:17:25.581Z,0.10
2022-11-04T21:22:32.228Z,0.10
2022-11-04T21:27:38.684Z,0.09
2022-11-04T21:32:45.389Z,0.10
2022-11-04T21:37:52.220Z,0.10
2022-11-04T21:42:58.866Z,0.10
2022-11-04T21:48:05.210Z,0.10
2022-11-04T21:53:12.516Z,0.10
2022-11-04T21:58:18.881Z,0.08
2022-11-04T22:03:26.364Z,0.13
2022-11-04T22:08:32.693Z,0.10
2022-11-04T22:13:39.443Z,0.10
2022-11-04T22:18:45.793Z,0.10
2022-11-04T22:23:52.440Z,0.10
2022-11-04T22:28:58.944Z,0.10
2022-11-04T22:34:12.259Z,0.09
2022-11-04T22:39:11.936Z,0.09
2022-11-04T22:44:15.216Z,0.09
2022-11-04T22:49:21.563Z,0.10
2022-11-04T22:54:28.198Z,0.10
2022-11-04T22:59:34.550Z,0.10
2022-11-04T23:04:41.471Z,0.10
2022-11-04T23:09:47.834Z,0.10
2022-11-04T23:14:54.587Z,0.06
2022-11-04T23:20:00.921Z,0.10
2022-11-04T23:25:08.370Z,0.09
2022-11-04T23:30:14.694Z,0.10
2022-11-04T23:35:22.181Z,0.10
2022-11-04T23:40:28.534Z,0.10
2022-11-04T23:45:35.884Z,0.10
2022-11-04T23:50:42.218Z,0.10
2022-11-04T23:55:49.558Z,0.10
